Time;durP1;ratioP1;P1;durP2;ratioP2;P2;SDS_P1;SDS_P2;PMS_P1;PMS_P2;Temp;Humidity;BMP_temperature;BMP_pressure;BME280_temperature;BME280_humidity;BME280_pressure;Samples;Min_cycle;Max_cycle;Signal;HPM_P1;HPM_P2
2021/11/27 00:01:44;;;;;;;40.90;20.90;;;;;;;2.33;90.01;95993.48;105230;1319;137715;-82
2021/11/27 00:04:11;;;;;;;38.40;21.80;;;;;;;2.25;89.74;95999.36;104753;1316;24273;-83
2021/11/27 00:06:39;;;;;;;46.70;23.70;;;;;;;2.19;89.53;96002.48;103741;1320;22593;-83
2021/11/27 00:09:07;;;;;;;41.30;24.00;;;;;;;2.16;89.78;96005.55;105404;1319;137688;-83
2021/11/27 00:11:34;;;;;;;39.00;21.90;;;;;;;2.13;89.99;96009.02;104409;1322;22958;-83
2021/11/27 00:14:05;;;;;;;50.00;26.60;;;;;;;2.07;89.81;96007.93;104967;1315;138087;-82
2021/11/27 00:16:46;;;;;;;55.60;27.60;;;;;;;2.06;90.27;96010.70;104422;1316;22607;-83
2021/11/27 00:19:13;;;;;;;50.20;26.40;;;;;;;2.06;90.00;96018.23;103440;1321;23341;-83
2021/11/27 00:21:42;;;;;;;48.10;24.40;;;;;;;2.03;89.88;96020.29;103514;1321;137298;-83
2021/11/27 00:24:10;;;;;;;50.60;25.30;;;;;;;1.98;89.64;96020.81;103515;1319;22636;-82
2021/11/27 00:26:37;;;;;;;52.70;26.30;;;;;;;1.91;89.61;96019.77;103594;1315;137329;-83
2021/11/27 00:29:04;;;;;;;47.60;25.00;;;;;;;1.84;89.41;96019.48;104575;1316;25268;-83
2021/11/27 00:31:31;;;;;;;46.10;24.20;;;;;;;1.76;89.53;96029.41;103707;1316;22682;-83
2021/11/27 00:34:01;;;;;;;47.10;25.40;;;;;;;1.69;89.42;96034.04;103606;1316;137357;-84
2021/11/27 00:36:28;;;;;;;46.30;22.20;;;;;;;1.61;89.50;96036.73;103933;1321;25426;-82
2021/11/27 00:39:11;;;;;;;55.80;25.90;;;;;;;1.52;89.53;96040.52;103933;1315;137315;-83
2021/11/27 00:41:38;;;;;;;48.60;23.80;;;;;;;1.47;89.86;96044.23;104139;1316;23380;-84
2021/11/27 00:44:07;;;;;;;49.80;25.10;;;;;;;1.43;89.80;96043.66;105084;1316;138099;-82
2021/11/27 00:46:35;;;;;;;42.80;23.00;;;;;;;1.39;89.82;96042.31;103536;1323;23319;-83
2021/11/27 00:49:02;;;;;;;40.50;21.70;;;;;;;1.34;89.79;96040.73;104062;1318;23955;-84
2021/11/27 00:51:44;;;;;;;38.60;18.80;;;;;;;1.26;89.67;96041.11;104196;1316;137161;-83
2021/11/27 00:54:11;;;;;;;42.20;21.80;;;;;;;1.19;89.76;96047.54;104776;1320;22586;-83
2021/11/27 00:56:39;;;;;;;35.10;18.90;;;;;;;1.12;89.94;96051.89;103737;1318;137996;-83
2021/11/27 00:59:06;;;;;;;39.20;20.40;;;;;;;1.07;90.01;96051.59;104330;1320;22649;-82
2021/11/27 01:01:54;;;;;;;33.40;17.90;;;;;;;1.05;90.22;96055.42;103803;1321;22925;-82
2021/11/27 01:04:35;;;;;;;29.60;14.60;;;;;;;1.01;90.33;96058.52;105325;1323;33211;-83
2021/11/27 01:07:04;;;;;;;27.80;16.00;;;;;;;0.98;90.30;96059.16;104333;1323;23035;-84
2021/11/27 01:09:45;;;;;;;31.60;17.10;;;;;;;0.94;90.23;96061.09;103678;1316;138609;-82
2021/11/27 01:12:12;;;;;;;29.10;17.10;;;;;;;0.93;90.35;96061.66;103658;1316;22585;-82
2021/11/27 01:14:42;;;;;;;30.20;16.00;;;;;;;0.92;90.47;96068.30;103368;1319;137732;-83
2021/11/27 01:17:11;;;;;;;24.70;14.70;;;;;;;0.91;90.31;96063.07;103824;1318;25326;-83
2021/11/27 01:19:52;;;;;;;24.60;14.20;;;;;;;0.88;90.48;96066.61;103928;1316;22735;-83
2021/11/27 01:22:23;;;;;;;30.40;14.50;;;;;;;0.83;90.39;96072.54;103866;1315;137614;-83
2021/11/27 01:24:52;;;;;;;28.90;15.20;;;;;;;0.77;90.32;96065.23;104026;1320;29719;-83
2021/11/27 01:27:19;;;;;;;29.00;15.80;;;;;;;0.78;90.43;96066.54;104025;1320;137800;-83
2021/11/27 01:29:46;;;;;;;28.30;15.70;;;;;;;0.76;90.80;96065.50;103467;1323;24518;-83
2021/11/27 01:32:15;;;;;;;32.20;16.00;;;;;;;0.75;90.70;96068.11;103498;1319;137473;-83
2021/11/27 01:34:47;;;;;;;32.50;17.00;;;;;;;0.75;90.60;96065.69;104019;1316;22611;-84
2021/11/27 01:37:15;;;;;;;32.50;17.30;;;;;;;0.70;90.44;96066.46;103420;1316;24223;-83
2021/11/27 01:39:42;;;;;;;33.40;17.40;;;;;;;0.70;90.59;96067.00;103799;1323;138788;-84
2021/11/27 01:42:11;;;;;;;33.50;16.70;;;;;;;0.69;90.88;96064.10;105109;1323;22542;-83
2021/11/27 01:44:41;;;;;;;34.90;18.40;;;;;;;0.68;90.94;96066.48;106081;1319;137719;-85
2021/11/27 01:47:11;;;;;;;34.50;16.50;;;;;;;0.68;90.86;96063.27;104774;1323;23316;-83
2021/11/27 01:49:40;;;;;;;33.80;18.00;;;;;;;0.68;91.00;96064.08;104379;1319;24329;-83
2021/11/27 01:52:09;;;;;;;30.30;17.10;;;;;;;0.70;91.23;96066.46;104985;1323;137921;-83
2021/11/27 01:54:37;;;;;;;35.80;17.70;;;;;;;0.72;90.86;96064.36;103907;1319;22630;-84
2021/11/27 01:57:20;;;;;;;36.30;16.40;;;;;;;0.73;91.04;96062.07;105179;1318;137655;-83
2021/11/27 02:00:06;;;;;;;31.90;17.50;;;;;;;0.77;91.02;96066.95;104063;1322;22665;-83
2021/11/27 02:02:45;;;;;;;32.70;15.80;;;;;;;0.79;90.99;96065.38;104825;1315;137316;-83
2021/11/27 02:05:12;;;;;;;37.00;17.40;;;;;;;0.80;90.98;96068.58;104771;1319;24851;-83
2021/11/27 02:07:54;;;;;;;36.40;17.70;;;;;;;0.81;90.70;96070.61;104150;1323;23266;-83
2021/11/27 02:10:22;;;;;;;;;;;;;;;0.80;90.43;96073.40;104851;1323;137704;-83
2021/11/27 02:13:04;;;;;;;28.80;14.70;;;;;;;0.79;90.54;96068.07;104898;1316;25255;-84
2021/11/27 02:15:37;;;;;;;32.60;17.00;;;;;;;0.80;90.50;96077.02;104256;1318;137134;-83
2021/11/27 02:18:05;;;;;;;29.90;16.80;;;;;;;0.78;90.64;96070.15;105219;1324;23110;-84
2021/11/27 02:20:52;;;;;;;29.00;16.20;;;;;;;0.78;90.53;96071.80;104169;1316;138201;-83
2021/11/27 02:23:20;;;;;;;28.20;16.10;;;;;;;0.77;90.32;96068.30;104849;1319;22566;-83
2021/11/27 02:25:47;;;;;;;29.20;15.70;;;;;;;0.78;90.37;96064.63;104914;1323;23123;-84
2021/11/27 02:28:14;;;;;;;29.50;15.30;;;;;;;0.78;90.38;96069.86;103750;1319;137720;-84
2021/11/27 02:30:56;;;;;;;30.60;15.80;;;;;;;0.77;90.33;96072.20;103861;1319;22635;-82
2021/11/27 02:33:28;;;;;;;30.20;15.50;;;;;;;0.75;90.51;96075.45;105317;1324;137975;-83
2021/11/27 02:35:55;;;;;;;30.20;17.30;;;;;;;0.78;90.57;96076.45;103947;1324;22642;-83
2021/11/27 02:38:23;;;;;;;30.30;15.30;;;;;;;0.81;90.60;96080.95;104534;1324;137926;-83
2021/11/27 02:40:50;;;;;;;28.10;15.10;;;;;;;0.81;90.34;96082.19;104680;1318;22590;-84
2021/11/27 02:43:20;;;;;;;28.00;15.50;;;;;;;0.80;90.34;96084.58;104103;1322;22678;-84
2021/11/27 02:45:49;;;;;;;28.20;14.90;;;;;;;0.81;90.52;96087.65;104610;1319;137849;-84
2021/11/27 02:48:16;;;;;;;27.70;15.10;;;;;;;0.82;90.32;96086.38;104249;1320;22664;-83
2021/11/27 02:50:43;;;;;;;29.70;16.00;;;;;;;0.82;90.52;96079.31;105028;1320;138213;-83
2021/11/27 02:53:11;;;;;;;30.30;15.70;;;;;;;0.84;90.49;96075.70;103661;1322;24262;-83
2021/11/27 02:55:39;;;;;;;26.40;15.40;;;;;;;0.86;90.55;96081.41;104821;1324;22696;-83
2021/11/27 02:58:06;;;;;;;28.80;15.90;;;;;;;0.89;90.55;96076.70;104785;1318;138198;-83
2021/11/27 03:00:33;;;;;;;23.40;14.00;;;;;;;0.92;90.40;96079.44;104156;1321;22649;-83
2021/11/27 03:03:03;;;;;;;26.50;13.30;;;;;;;0.94;90.45;96091.69;104524;1317;138102;-83
2021/11/27 03:05:44;;;;;;;20.90;13.10;;;;;;;0.96;90.25;96100.77;103901;1321;23995;-86
2021/11/27 03:08:11;;;;;;;24.90;13.60;;;;;;;0.94;90.23;96107.60;104667;1319;137923;-83
2021/11/27 03:10:39;;;;;;;21.60;11.30;;;;;;;0.94;90.40;96110.02;104526;1322;22614;-84
2021/11/27 03:13:06;;;;;;;20.00;12.50;;;;;;;0.92;90.05;96118.17;103846;1323;22603;-83
2021/11/27 03:15:41;;;;;;;21.30;11.70;;;;;;;0.91;90.09;96130.75;103419;1316;137749;-83
2021/11/27 03:18:22;;;;;;;21.00;11.70;;;;;;;0.91;90.12;96143.30;103682;1324;25273;-83
2021/11/27 03:20:51;;;;;;;26.30;14.00;;;;;;;0.89;89.97;96145.51;103373;1321;137335;-82
2021/11/27 03:23:22;;;;;;;26.00;14.00;;;;;;;0.86;90.00;96147.34;103515;1317;24324;-83
2021/11/27 03:25:49;;;;;;;22.30;14.80;;;;;;;0.83;90.03;96150.11;103422;1321;22614;-83
2021/11/27 03:28:17;;;;;;;26.00;14.30;;;;;;;0.83;90.14;96155.09;103586;1323;137422;-83
2021/11/27 03:30:44;;;;;;;27.60;14.50;;;;;;;0.81;90.31;96158.33;103795;1318;25345;-83
2021/11/27 03:33:11;;;;;;;27.80;14.30;;;;;;;0.76;90.19;96156.48;103872;1320;137106;-83
2021/11/27 03:35:40;;;;;;;33.10;17.00;;;;;;;0.72;90.32;96159.34;103724;1323;22873;-84
2021/11/27 03:38:08;;;;;;;;;;;;;;;0.70;90.46;96165.55;104289;1318;138032;-83
2021/11/27 03:40:37;;;;;;;30.00;15.60;;;;;;;0.68;90.35;96172.66;104378;1321;23439;-83
2021/11/27 03:43:05;;;;;;;36.80;19.10;;;;;;;0.68;90.68;96171.05;104432;1318;25698;-84
2021/11/27 03:45:33;;;;;;;29.20;15.40;;;;;;;0.69;90.71;96173.00;103856;1321;137658;-83
2021/11/27 03:48:18;;;;;;;32.70;15.90;;;;;;;0.66;90.63;96174.28;104632;1315;22648;-82
2021/11/27 03:51:09;;;;;;;40.00;18.30;;;;;;;0.65;90.51;96177.36;103513;1323;137245;-83
2021/11/27 03:53:50;;;;;;;31.70;16.90;;;;;;;0.65;90.58;96184.66;103909;1319;25491;-83
2021/11/27 03:56:21;;;;;;;32.10;16.40;;;;;;;0.65;90.50;96191.08;103896;1321;138016;-83
2021/11/27 03:58:51;;;;;;;27.80;15.30;;;;;;;0.67;90.64;96199.08;103630;1315;24252;-83
2021/11/27 04:01:20;;;;;;;37.00;18.50;;;;;;;0.68;90.82;96204.10;105079;1318;22633;-83
2021/11/27 04:04:03;;;;;;;35.10;18.00;;;;;;;0.68;90.98;96211.50;103791;1318;137265;-83
2021/11/27 04:06:36;;;;;;;31.80;15.50;;;;;;;0.71;91.10;96212.16;104093;1319;24425;-84
2021/11/27 04:09:09;;;;;;;31.60;17.50;;;;;;;0.72;90.94;96220.26;103711;1316;137911;-83
2021/11/27 04:11:50;;;;;;;35.20;18.00;;;;;;;0.76;91.02;96223.59;103679;1320;22827;-84
2021/11/27 04:14:25;;;;;;;27.50;14.20;;;;;;;0.79;91.24;96227.23;105111;1321;137559;-84
2021/11/27 04:17:10;;;;;;;31.30;16.30;;;;;;;0.79;90.93;96235.44;103602;1322;25351;-84
2021/11/27 04:19:52;;;;;;;29.60;15.70;;;;;;;0.78;90.92;96240.09;104285;1321;23543;-83
2021/11/27 04:22:20;;;;;;;30.10;16.00;;;;;;;0.80;91.24;96243.12;103534;1322;138201;-84
2021/11/27 04:24:57;;;;;;;24.90;13.40;;;;;;;0.81;90.98;96250.27;103535;1321;24325;-83
2021/11/27 04:27:27;;;;;;;28.40;14.50;;;;;;;0.84;91.07;96254.67;103881;1315;137480;-84
2021/11/27 04:29:55;;;;;;;26.10;13.60;;;;;;;0.84;90.96;96253.44;104630;1322;22565;-83
2021/11/27 04:32:22;;;;;;;27.50;14.10;;;;;;;0.82;90.93;96251.52;103822;1320;138249;-83
2021/11/27 04:35:15;;;;;;;26.30;13.50;;;;;;;0.82;90.91;96254.74;103426;1322;24434;-84
2021/11/27 04:37:45;;;;;;;27.30;15.10;;;;;;;0.83;90.99;96258.46;103874;1316;22564;-84
2021/11/27 04:40:14;;;;;;;26.70;13.70;;;;;;;0.86;91.07;96261.38;104232;1322;137480;-84
2021/11/27 04:42:42;;;;;;;27.00;14.00;;;;;;;0.88;90.97;96255.35;104176;1322;22601;-83
2021/11/27 04:45:12;;;;;;;30.40;15.40;;;;;;;0.89;90.93;96252.00;104037;1322;137792;-83
2021/11/27 04:47:41;;;;;;;25.50;13.40;;;;;;;0.92;90.98;96254.45;103481;1324;259297;-83
2021/11/27 04:50:10;;;;;;;26.30;14.00;;;;;;;0.93;90.98;96253.73;103498;1322;138341;-83
2021/11/27 04:52:38;;;;;;;23.10;12.70;;;;;;;0.95;90.84;96257.31;105611;1317;23395;-82
2021/11/27 04:55:07;;;;;;;25.90;14.10;;;;;;;0.98;91.00;96254.05;103768;1319;25342;-84
2021/11/27 04:57:37;;;;;;;26.00;13.90;;;;;;;1.00;90.93;96248.98;103642;1321;137528;-84
2021/11/27 05:00:12;;;;;;;27.40;14.80;;;;;;;1.00;90.89;96255.83;103648;1320;24222;-84
2021/11/27 05:02:39;;;;;;;24.00;14.30;;;;;;;1.01;90.87;96261.15;104485;1322;138119;-84
2021/11/27 05:05:09;;;;;;;25.60;13.60;;;;;;;1.01;90.57;96261.98;104020;1320;22580;-85
2021/11/27 05:07:36;;;;;;;22.10;13.40;;;;;;;1.04;90.63;96263.91;103946;1323;22446;-85
2021/11/27 05:10:04;;;;;;;24.10;13.40;;;;;;;1.04;90.47;96261.56;103675;1323;137732;-83
2021/11/27 05:12:46;;;;;;;27.50;14.30;;;;;;;1.05;90.84;96268.36;103957;1323;22644;-84
2021/11/27 05:15:26;;;;;;;24.50;14.30;;;;;;;1.06;90.81;96266.74;103430;1317;137930;-84
2021/11/27 05:17:59;;;;;;;24.80;14.70;;;;;;;1.10;90.83;96273.52;103474;1322;25389;-84
2021/11/27 05:21:03;;;;;;;27.00;14.00;;;;;;;1.12;90.57;96274.30;103543;1318;137990;-84
2021/11/27 05:23:32;;;;;;;25.80;14.60;;;;;;;1.13;90.52;96270.34;103389;1322;22570;-83
2021/11/27 05:26:05;;;;;;;25.30;14.40;;;;;;;1.13;90.78;96277.80;103674;1321;138283;-82
2021/11/27 05:28:58;;;;;;;24.20;13.00;;;;;;;1.15;90.61;96277.94;105187;1323;22591;-84
2021/11/27 05:31:54;;;;;;;26.50;14.70;;;;;;;1.18;90.58;96279.94;103629;1322;25457;-85
2021/11/27 05:36:51;;;;;;;22.20;12.90;;;;;;;1.24;90.59;96292.10;103686;1317;25243;-84
2021/11/27 05:39:33;;;;;;;22.70;12.30;;;;;;;1.24;90.41;96291.14;103714;1320;137441;-85
2021/11/27 05:42:15;;;;;;;22.60;12.20;;;;;;;1.24;90.35;96287.81;103966;1316;22606;-85
2021/11/27 05:44:50;;;;;;;23.90;13.60;;;;;;;1.25;90.35;96286.17;104833;1321;137913;-84
2021/11/27 05:47:31;;;;;;;21.90;12.90;;;;;;;1.28;90.48;96281.95;103625;1318;24229;-85
2021/11/27 05:49:58;;;;;;;21.90;12.60;;;;;;;1.28;90.27;96274.72;104003;1322;22728;-84
2021/11/27 05:52:31;;;;;;;21.40;11.80;;;;;;;1.29;90.30;96282.94;105353;1321;137732;-84
2021/11/27 05:54:58;;;;;;;23.70;12.20;;;;;;;1.31;90.37;96283.77;103836;1316;22766;-84
2021/11/27 05:57:26;;;;;;;20.30;11.90;;;;;;;1.34;90.20;96283.55;103896;1316;138015;-84
2021/11/27 06:00:07;;;;;;;21.10;11.90;;;;;;;1.35;90.13;96283.73;104397;1320;24252;-84
2021/11/27 06:02:39;;;;;;;20.60;11.80;;;;;;;1.35;90.08;96291.92;104250;1322;137293;-85
2021/11/27 06:05:20;;;;;;;25.40;13.40;;;;;;;1.36;90.12;96309.55;103988;1324;23121;-84
2021/11/27 06:07:47;;;;;;;23.00;12.40;;;;;;;1.36;89.93;96314.85;103948;1315;22611;-84
2021/11/27 06:10:28;;;;;;;23.20;12.80;;;;;;;1.36;89.88;96314.61;103899;1316;137657;-85
2021/11/27 06:12:55;;;;;;;21.40;12.60;;;;;;;1.40;90.04;96315.95;103587;1321;22587;-84
2021/11/27 06:15:22;;;;;;;20.40;12.60;;;;;;;1.41;89.77;96321.80;105247;1320;137128;-84
2021/11/27 06:17:50;;;;;;;24.30;14.00;;;;;;;1.40;89.68;96325.92;104282;1320;22577;-83
2021/11/27 06:20:17;;;;;;;25.80;15.40;;;;;;;1.41;89.73;96333.14;104501;1322;138013;-85
2021/11/27 06:22:44;;;;;;;22.30;13.50;;;;;;;1.44;89.85;96331.85;105188;1317;22581;-84
2021/11/27 06:25:11;;;;;;;22.50;13.90;;;;;;;1.48;89.86;96334.98;105229;1322;22567;-85
2021/11/27 06:27:38;;;;;;;22.60;13.50;;;;;;;1.51;89.79;96332.14;104881;1319;137206;-84
2021/11/27 06:30:06;;;;;;;25.20;14.30;;;;;;;1.54;90.06;96335.84;104560;1320;22588;-85
2021/11/27 06:32:48;;;;;;;23.00;13.50;;;;;;;1.58;89.78;96338.87;103584;1321;137755;-84
2021/11/27 06:35:15;;;;;;;22.60;13.40;;;;;;;1.62;89.81;96332.94;103942;1323;22600;-84
2021/11/27 06:37:56;;;;;;;27.10;14.70;;;;;;;1.66;89.67;96330.59;103631;1323;22653;-84
2021/11/27 06:40:23;;;;;;;26.80;14.70;;;;;;;1.68;89.56;96337.73;103553;1316;137278;-84
2021/11/27 06:43:22;;;;;;;29.40;16.50;;;;;;;1.68;89.45;96336.52;104694;1319;22588;-84
2021/11/27 06:46:00;;;;;;;26.60;15.30;;;;;;;1.66;89.27;96341.42;104335;1322;137780;-84
2021/11/27 06:48:41;;;;;;;24.80;14.30;;;;;;;1.66;89.13;96348.08;104670;1320;22654;-84
2021/11/27 06:51:10;;;;;;;27.30;15.20;;;;;;;1.68;89.28;96346.57;105333;1321;137540;-85
2021/11/27 06:53:37;;;;;;;24.90;13.80;;;;;;;1.69;89.21;96339.67;104223;1322;23277;-85
2021/11/27 06:56:04;;;;;;;24.90;14.90;;;;;;;1.71;89.24;96348.36;104510;1319;24334;-84
2021/11/27 06:58:45;;;;;;;27.90;16.10;;;;;;;1.72;89.18;96353.45;104412;1319;137419;-84
2021/11/27 07:01:40;;;;;;;25.10;14.30;;;;;;;1.74;88.98;96350.84;103896;1316;29779;-85
2021/11/27 07:04:25;;;;;;;28.40;15.30;;;;;;;1.76;89.02;96348.48;104657;1316;137946;-84
2021/11/27 07:07:24;;;;;;;23.80;13.30;;;;;;;1.79;89.15;96355.30;103943;1319;22597;-84
2021/11/27 07:10:09;;;;;;;23.10;14.50;;;;;;;1.82;89.07;96359.91;103442;1323;137208;-84
2021/11/27 07:12:41;;;;;;;28.10;16.70;;;;;;;1.84;89.26;96363.61;103566;1323;24343;-84
2021/11/27 07:15:08;;;;;;;29.10;16.30;;;;;;;1.88;89.33;96368.98;103591;1316;137812;-85
2021/11/27 07:17:36;;;;;;;27.70;15.80;;;;;;;1.92;89.15;96368.20;104833;1318;25404;-84
2021/11/27 07:20:05;;;;;;;26.90;15.90;;;;;;;1.94;88.98;96374.30;104827;1323;22684;-85
2021/11/27 07:22:32;;;;;;;30.20;15.40;;;;;;;1.97;89.16;96375.00;105037;1317;137413;-85
2021/11/27 07:25:13;;;;;;;27.80;15.90;;;;;;;2.01;89.08;96377.85;104317;1316;22685;-85
2021/11/27 07:28:13;;;;;;;29.80;17.10;;;;;;;2.03;88.94;96386.91;103650;1322;138275;-84
2021/11/27 07:30:39;;;;;;;25.90;14.90;;;;;;;2.07;88.87;96386.55;103812;1316;22659;-84
2021/11/27 07:33:20;;;;;;;25.80;14.20;;;;;;;2.11;88.84;96389.68;103715;1316;138491;-85
2021/11/27 07:35:49;;;;;;;32.80;17.20;;;;;;;2.13;88.53;96390.30;103819;1321;22564;-84
2021/11/27 07:38:31;;;;;;;28.30;15.80;;;;;;;2.12;88.38;96394.79;103905;1316;138208;-85
2021/11/27 07:41:12;;;;;;;32.70;16.70;;;;;;;2.09;88.19;96391.63;103955;1316;25405;-84
2021/11/27 07:43:40;;;;;;;29.00;15.60;;;;;;;2.09;88.34;96395.45;104084;1319;25235;-84
2021/11/27 07:46:23;;;;;;;31.20;16.30;;;;;;;2.13;88.52;96395.67;103545;1319;138869;-84
2021/11/27 07:49:25;;;;;;;29.00;15.90;;;;;;;2.18;88.63;96392.12;104549;1321;22630;-85
2021/11/27 07:52:10;;;;;;;27.40;15.30;;;;;;;2.25;88.61;96393.04;104359;1316;137380;-85
2021/11/27 07:54:37;;;;;;;30.70;17.10;;;;;;;2.28;88.34;96384.66;104622;1322;25328;-84
2021/11/27 07:57:04;;;;;;;30.10;16.30;;;;;;;2.32;88.09;96389.61;103925;1322;138068;-85
2021/11/27 07:59:45;;;;;;;28.30;15.70;;;;;;;2.40;88.21;96388.87;104001;1316;22632;-84
2021/11/27 08:02:26;;;;;;;29.00;16.20;;;;;;;2.50;88.11;96388.59;104207;1316;137959;-84
2021/11/27 08:05:07;;;;;;;28.00;16.20;;;;;;;2.56;88.03;96383.27;104927;1316;22612;-84
2021/11/27 08:07:35;;;;;;;30.30;17.60;;;;;;;2.61;87.85;96386.52;103860;1316;22580;-84
2021/11/27 08:10:09;;;;;;;28.10;15.60;;;;;;;2.65;87.62;96381.42;103650;1320;138050;-85
2021/11/27 08:12:36;;;;;;;34.30;16.70;;;;;;;2.68;87.11;96385.27;103669;1322;22644;-84
2021/11/27 08:15:05;;;;;;;28.90;16.00;;;;;;;2.69;87.02;96390.19;104918;1316;137467;-85
2021/11/27 08:17:32;;;;;;;32.00;16.60;;;;;;;2.73;87.37;96395.98;103937;1321;24299;-85
2021/11/27 08:19:59;;;;;;;27.30;16.30;;;;;;;2.78;87.25;96397.40;103495;1322;22581;-84
2021/11/27 08:22:41;;;;;;;32.70;18.10;;;;;;;2.78;86.86;96398.27;104725;1316;137907;-85
2021/11/27 08:25:22;;;;;;;28.40;17.00;;;;;;;2.79;86.79;96403.62;103926;1320;22455;-84
2021/11/27 08:27:49;;;;;;;30.00;16.80;;;;;;;2.82;86.84;96412.35;104101;1323;137648;-85
2021/11/27 08:30:16;;;;;;;29.90;16.50;;;;;;;2.85;86.79;96414.71;103601;1321;22609;-85
2021/11/27 08:32:48;;;;;;;27.90;16.10;;;;;;;2.87;86.61;96414.16;104415;1316;137942;-85
2021/11/27 08:35:16;;;;;;;26.70;15.20;;;;;;;2.85;86.08;96414.83;105205;1322;22762;-85
2021/11/27 08:37:43;;;;;;;30.90;17.40;;;;;;;2.84;86.31;96417.02;103648;1318;25352;-85
2021/11/27 08:40:12;;;;;;;29.40;16.50;;;;;;;2.85;86.14;96427.82;104600;1322;138450;-84
2021/11/27 08:42:39;;;;;;;25.40;15.30;;;;;;;2.86;86.22;96439.95;104749;1323;23229;-84
2021/11/27 08:45:07;;;;;;;29.50;16.20;;;;;;;2.93;87.03;96445.86;104170;1316;138036;-84
2021/11/27 08:47:34;;;;;;;28.20;16.50;;;;;;;3.14;87.22;96449.55;103887;1317;22783;-85
2021/11/27 08:50:01;;;;;;;31.00;18.20;;;;;;;3.21;86.19;96448.04;103923;1315;22708;-87
2021/11/27 08:52:28;;;;;;;34.90;19.90;;;;;;;3.24;85.97;96454.16;104363;1316;137311;-86
2021/11/27 08:54:55;;;;;;;29.30;16.50;;;;;;;3.27;85.93;96456.45;103782;1315;25320;-89
2021/11/27 08:57:23;;;;;;;32.20;18.90;;;;;;;3.27;85.32;96463.41;104006;1317;138008;-81
2021/11/27 08:59:51;;;;;;;23.40;14.90;;;;;;;3.25;85.05;96460.84;103776;1321;26589;-82
2021/11/27 09:02:18;;;;;;;25.30;15.60;;;;;;;3.20;84.51;96453.73;103897;1323;22599;-83
2021/11/27 09:04:45;;;;;;;29.80;17.50;;;;;;;3.09;84.51;96447.27;103945;1323;137647;-83
2021/11/27 09:07:13;;;;;;;26.70;17.60;;;;;;;3.04;84.81;96452.74;104536;1321;23090;-82
2021/11/27 09:09:54;;;;;;;31.00;16.60;;;;;;;2.99;84.77;96455.58;103582;1322;137919;-82
2021/11/27 09:12:21;;;;;;;27.60;16.20;;;;;;;2.97;84.60;96457.53;103933;1322;25359;-82
2021/11/27 09:14:51;;;;;;;28.20;16.00;;;;;;;2.94;84.48;96460.06;105142;1321;137293;-82
2021/11/27 09:17:19;;;;;;;30.80;17.30;;;;;;;2.95;85.36;96465.99;103873;1316;23410;-82
2021/11/27 09:19:46;;;;;;;30.30;18.10;;;;;;;3.06;85.05;96465.09;103560;1322;25316;-83
2021/11/27 09:22:27;;;;;;;25.10;16.60;;;;;;;3.09;84.68;96469.77;103505;1320;137707;-81
2021/11/27 09:24:54;;;;;;;27.40;16.60;;;;;;;3.10;84.43;96466.92;103702;1322;22785;-82
2021/11/27 09:27:35;;;;;;;23.80;16.30;;;;;;;3.12;84.35;96460.92;103805;1322;137821;-82
2021/11/27 09:30:05;;;;;;;27.00;16.30;;;;;;;3.16;84.70;96459.80;103595;1322;24412;-84
2021/11/27 09:32:32;;;;;;;28.10;15.80;;;;;;;3.20;84.53;96456.58;103678;1318;137527;-81
2021/11/27 09:35:13;;;;;;;29.80;17.30;;;;;;;3.20;84.26;96451.63;103414;1318;24301;-83
2021/11/27 09:37:41;;;;;;;26.00;15.40;;;;;;;3.19;84.24;96452.75;104308;1322;22743;-82
2021/11/27 09:40:10;;;;;;;24.30;14.40;;;;;;;3.26;85.79;96454.56;104099;1318;137850;-83
2021/11/27 09:42:53;;;;;;;24.80;14.10;;;;;;;3.41;84.27;96452.34;103912;1315;22586;-83
2021/11/27 09:45:25;;;;;;;31.10;16.10;;;;;;;3.41;83.69;96453.86;104108;1316;138052;-82
2021/11/27 09:47:55;;;;;;;32.80;18.20;;;;;;;3.43;83.88;96455.98;103774;1322;22564;-82
2021/11/27 09:50:36;;;;;;;29.40;17.30;;;;;;;3.46;84.09;96462.85;103626;1321;137373;-82
2021/11/27 09:53:03;;;;;;;31.60;17.50;;;;;;;3.51;84.24;96465.11;104223;1316;22608;-82
2021/11/27 09:55:30;;;;;;;29.70;17.60;;;;;;;3.56;84.15;96464.21;104047;1320;23301;-82
2021/11/27 09:58:11;;;;;;;23.90;13.10;;;;;;;3.60;83.49;96465.46;104339;1316;138171;-83
2021/11/27 10:00:39;;;;;;;26.30;14.50;;;;;;;3.64;83.21;96460.06;103948;1316;23067;-82
2021/11/27 10:03:08;;;;;;;26.50;15.20;;;;;;;3.67;82.79;96460.59;103795;1320;137815;-82
2021/11/27 10:05:50;;;;;;;22.70;14.40;;;;;;;3.63;82.23;96464.25;104142;1322;22585;-83
2021/11/27 10:08:17;;;;;;;27.50;15.30;;;;;;;3.58;82.58;96464.09;103782;1316;22659;-83
2021/11/27 10:10:57;;;;;;;25.20;15.80;;;;;;;3.59;82.97;96452.85;104119;1316;138342;-82
2021/11/27 10:13:38;;;;;;;26.90;16.60;;;;;;;3.68;82.98;96463.34;104023;1319;22570;-82
2021/11/27 10:16:05;;;;;;;24.30;13.90;;;;;;;3.77;82.90;96459.15;103803;1317;137498;-82
2021/11/27 10:18:32;;;;;;;22.60;14.10;;;;;;;3.91;83.23;96462.08;104900;1316;22562;-83
2021/11/27 10:21:22;;;;;;;25.50;15.10;;;;;;;4.05;82.66;96460.23;104004;1316;137782;-83
2021/11/27 10:24:23;;;;;;;27.20;16.20;;;;;;;4.15;83.06;96471.38;104976;1317;22768;-81
2021/11/27 10:26:53;;;;;;;25.90;15.40;;;;;;;4.34;83.21;96476.98;103959;1315;137709;-82
2021/11/27 10:29:36;;;;;;;24.40;13.40;;;;;;;4.48;81.85;96484.50;103866;1316;22736;-83
2021/11/27 10:32:08;;;;;;;23.20;13.70;;;;;;;4.49;81.00;96485.27;105400;1316;22741;-82
2021/11/27 10:34:36;;;;;;;25.30;13.90;;;;;;;4.49;80.94;96480.29;103808;1316;138184;-82
2021/11/27 10:37:33;;;;;;;22.50;14.30;;;;;;;4.49;80.65;96480.88;104840;1317;23428;-82
2021/11/27 10:40:30;;;;;;;24.40;14.70;;;;;;;4.47;80.43;96482.80;104124;1317;137289;-83
2021/11/27 10:43:05;;;;;;;26.40;13.90;;;;;;;4.49;80.71;96471.40;104152;1316;23211;-82
2021/11/27 10:45:48;;;;;;;23.50;14.00;;;;;;;4.53;80.78;96472.56;104116;1316;137148;-82
2021/11/27 10:48:21;;;;;;;23.90;14.90;;;;;;;4.59;80.65;96468.59;104339;1322;22584;-82
2021/11/27 10:51:00;;;;;;;22.10;14.30;;;;;;;4.70;80.60;96467.59;104530;1316;137878;-82
2021/11/27 10:53:33;;;;;;;21.70;13.80;;;;;;;4.85;80.50;96465.40;104521;1316;22753;-82
2021/11/27 10:56:14;;;;;;;22.70;13.90;;;;;;;5.01;80.29;96457.23;103739;1319;22681;-82
2021/11/27 10:59:07;;;;;;;21.50;13.80;;;;;;;5.10;79.58;96468.13;103603;1317;138140;-82
2021/11/27 11:02:04;;;;;;;24.00;13.90;;;;;;;5.13;79.50;96470.58;103666;1316;26977;-82
2021/11/27 11:04:39;;;;;;;23.10;13.90;;;;;;;5.14;78.84;96464.55;103352;1321;137162;-83
2021/11/27 11:07:27;;;;;;;24.20;14.40;;;;;;;5.18;78.94;96470.02;103488;1316;25329;-82
2021/11/27 11:10:20;;;;;;;27.90;14.90;;;;;;;5.24;78.72;96468.16;103366;1319;137520;-82
2021/11/27 11:12:52;;;;;;;25.50;14.40;;;;;;;5.29;78.56;96463.33;103585;1316;22584;-82
2021/11/27 11:15:37;;;;;;;22.10;12.30;;;;;;;5.35;78.26;96464.95;103466;1316;137811;-82
2021/11/27 11:18:27;;;;;;;18.20;11.90;;;;;;;5.46;77.89;96462.59;103583;1318;22708;-82
2021/11/27 11:20:58;;;;;;;;;;;;;;;5.56;77.73;96465.76;104085;1315;137747;-83
2021/11/27 11:23:34;;;;;;;19.20;11.50;;;;;;;5.63;77.53;96462.01;103697;1319;22630;-82
2021/11/27 11:26:15;;;;;;;18.50;11.60;;;;;;;5.69;77.01;96458.43;103798;1320;25376;-83
2021/11/27 11:28:57;;;;;;;19.70;11.90;;;;;;;5.71;76.26;96456.98;103535;1322;137630;-83
2021/11/27 11:31:26;;;;;;;16.40;10.10;;;;;;;5.73;76.15;96459.64;105243;1319;23618;-83
2021/11/27 11:33:57;;;;;;;19.70;10.80;;;;;;;5.71;75.59;96451.58;104349;1316;137297;-83
2021/11/27 11:36:25;;;;;;;16.00;10.50;;;;;;;5.70;75.10;96450.01;104470;1317;22602;-83
2021/11/27 11:39:06;;;;;;;13.90;8.70;;;;;;;5.68;74.61;96460.15;103591;1316;137464;-83
2021/11/27 11:41:47;;;;;;;14.40;8.40;;;;;;;5.61;73.33;96456.41;103525;1316;25432;-83
2021/11/27 11:44:15;;;;;;;15.30;7.80;;;;;;;5.50;72.69;96456.17;104519;1322;23135;-83
2021/11/27 11:46:43;;;;;;;13.60;7.70;;;;;;;5.37;72.09;96454.59;105376;1316;137960;-83